Time;durP1;ratioP1;P1;durP2;ratioP2;P2;SDS_P1;SDS_P2;PMS_P1;PMS_P2;Temp;Humidity;BMP_temperature;BMP_pressure;BME280_temperature;BME280_humidity;BME280_pressure;Samples;Min_cycle;Max_cycle;Signal;HPM_P1;HPM_P2
2022/06/22 00:01:51;;;;;;;5.40;2.00;;;;;;;12.50;74.93;99862.35;105867;1278;22553;-81
2022/06/22 00:04:22;;;;;;;2.40;1.80;;;;;;;12.47;75.13;99858.69;105753;1276;24788;-75
2022/06/22 00:07:01;;;;;;;3.30;1.80;;;;;;;12.48;75.15;99857.45;105921;1276;23073;-74
2022/06/22 00:09:32;;;;;;;4.70;1.70;;;;;;;12.45;75.12;99858.94;105897;1272;22535;-76
2022/06/22 00:11:59;;;;;;;2.40;2.10;;;;;;;12.40;75.16;99856.59;106322;1270;25522;-76
2022/06/22 00:14:42;;;;;;;3.50;2.20;;;;;;;12.39;75.31;99854.67;106499;1270;22687;-75
2022/06/22 00:17:30;;;;;;;4.50;2.60;;;;;;;12.41;75.45;99854.12;106913;1270;22798;-79
2022/06/22 00:20:00;;;;;;;2.80;1.60;;;;;;;12.44;75.43;99861.25;105864;1277;24297;-81
2022/06/22 00:22:26;;;;;;;2.90;1.90;;;;;;;12.39;75.27;99865.63;105901;1277;25688;-81
2022/06/22 00:25:11;;;;;;;3.60;1.90;;;;;;;12.34;75.44;99869.96;106002;1277;24413;-82
2022/06/22 00:27:37;;;;;;;5.10;2.10;;;;;;;12.30;75.58;99875.37;106056;1277;24735;-80
2022/06/22 00:30:09;;;;;;;5.20;2.40;;;;;;;12.27;75.66;99881.63;106294;1276;26483;-83
2022/06/22 00:32:37;;;;;;;4.50;2.00;;;;;;;12.25;75.65;99883.09;106262;1276;22541;-82
2022/06/22 00:35:41;;;;;;;5.00;1.80;;;;;;;12.27;75.75;99882.52;106160;1277;22533;-84
2022/06/22 00:38:26;;;;;;;2.40;1.60;;;;;;;12.34;75.76;99894.86;106286;1271;22536;-81
2022/06/22 00:40:57;;;;;;;4.20;2.00;;;;;;;12.32;75.61;99894.38;106882;1271;25277;-76
2022/06/22 00:43:35;;;;;;;2.40;2.00;;;;;;;12.31;75.70;99890.51;107706;1271;22632;-74
2022/06/22 00:46:05;;;;;;;3.20;1.70;;;;;;;12.33;75.78;99885.36;107113;1270;24298;-75
2022/06/22 00:48:35;;;;;;;1.80;1.70;;;;;;;12.34;75.73;99884.45;106509;1270;22538;-79
2022/06/22 00:51:08;;;;;;;5.60;1.80;;;;;;;12.35;75.68;99887.77;106216;1270;23359;-78
2022/06/22 00:53:41;;;;;;;1.90;1.40;;;;;;;12.37;75.56;99892.51;106166;1270;24265;-79
2022/06/22 00:56:11;;;;;;;2.30;1.70;;;;;;;12.40;75.59;99898.62;106146;1270;24342;-77
2022/06/22 00:58:55;;;;;;;1.90;1.60;;;;;;;12.42;75.47;99899.09;106046;1273;24723;-78
2022/06/22 01:01:29;;;;;;;2.00;1.80;;;;;;;12.42;75.37;99901.40;106137;1270;22711;-79
2022/06/22 01:04:04;;;;;;;4.40;2.10;;;;;;;12.42;75.42;99905.46;106161;1270;25268;-75
2022/06/22 01:06:53;;;;;;;4.20;1.90;;;;;;;12.43;75.38;99899.95;106159;1270;25271;-79
2022/06/22 01:09:42;;;;;;;3.70;1.90;;;;;;;12.42;75.24;99899.98;106258;1270;22880;-80
2022/06/22 01:12:25;;;;;;;2.80;2.00;;;;;;;12.38;75.22;99899.38;106232;1271;25416;-79
2022/06/22 01:15:19;;;;;;;2.80;2.30;;;;;;;12.32;75.39;99904.27;106343;1270;22542;-76
2022/06/22 01:18:12;;;;;;;3.10;1.90;;;;;;;12.32;75.56;99897.20;105648;1277;22555;-76
2022/06/22 01:20:56;;;;;;;3.10;2.00;;;;;;;12.31;75.54;99891.95;105882;1277;25612;-81
2022/06/22 01:23:53;;;;;;;5.30;2.40;;;;;;;12.32;75.65;99886.95;105709;1276;25265;-76
2022/06/22 01:26:38;;;;;;;5.10;2.60;;;;;;;12.33;75.71;99882.90;105843;1274;25390;-79
2022/06/22 01:29:13;;;;;;;3.60;2.30;;;;;;;12.30;75.50;99885.24;105798;1277;22535;-81
2022/06/22 01:31:49;;;;;;;4.40;2.60;;;;;;;12.27;75.57;99887.27;105961;1276;22560;-82
2022/06/22 01:34:17;;;;;;;3.60;2.10;;;;;;;12.21;75.48;99883.36;105884;1277;22570;-82
2022/06/22 01:36:44;;;;;;;2.80;2.30;;;;;;;12.16;75.50;99883.30;105880;1276;25228;-80
2022/06/22 01:39:12;;;;;;;2.60;2.00;;;;;;;12.12;75.64;99882.16;105853;1277;24231;-80
2022/06/22 01:42:27;;;;;;;2.60;2.10;;;;;;;12.08;75.68;99879.76;105990;1271;22775;-80
2022/06/22 01:45:00;;;;;;;3.70;2.30;;;;;;;12.00;75.74;99877.81;106338;1270;25365;-79
2022/06/22 01:47:46;;;;;;;4.40;2.10;;;;;;;11.94;75.87;99877.94;106246;1270;24254;-79
2022/06/22 01:50:27;;;;;;;3.50;3.10;;;;;;;11.89;76.02;99879.29;106122;1270;24214;-77
2022/06/22 01:53:19;;;;;;;2.80;2.00;;;;;;;11.85;76.11;99880.96;106281;1270;22540;-77
2022/06/22 01:56:08;;;;;;;4.00;2.60;;;;;;;11.82;76.22;99884.39;106409;1270;22550;-81
2022/06/22 01:58:41;;;;;;;2.60;2.40;;;;;;;11.82;76.56;99881.92;106245;1272;22557;-84
2022/06/22 02:01:23;;;;;;;4.20;2.10;;;;;;;11.81;76.55;99882.46;106320;1270;24409;-82
2022/06/22 02:04:09;;;;;;;3.20;2.20;;;;;;;11.82;76.69;99889.52;106388;1270;22649;-81
2022/06/22 02:09:36;;;;;;;3.10;2.40;;;;;;;11.83;76.74;99888.08;106020;1277;23007;-83
2022/06/22 02:12:18;;;;;;;4.90;2.40;;;;;;;11.81;76.75;99888.64;105904;1281;24479;-83
2022/06/22 02:14:51;;;;;;;3.90;2.20;;;;;;;11.80;76.94;99889.02;105551;1281;24065;-83
2022/06/22 02:17:23;;;;;;;5.20;2.60;;;;;;;11.81;77.06;99890.77;105696;1281;23097;-84
2022/06/22 02:20:13;;;;;;;2.80;2.50;;;;;;;11.84;77.22;99897.94;105874;1281;25236;-81
2022/06/22 02:22:39;;;;;;;3.80;2.60;;;;;;;11.83;77.22;99897.95;107077;1281;23981;-81
2022/06/22 02:25:07;;;;;;;7.80;2.70;;;;;;;11.79;77.19;99898.03;108265;1276;22503;-80
2022/06/22 02:27:33;;;;;;;4.60;2.40;;;;;;;11.78;77.35;99902.50;106687;1276;22669;-76
2022/06/22 02:30:00;;;;;;;3.30;2.60;;;;;;;11.77;77.36;99906.55;106138;1270;22945;-79
2022/06/22 02:32:35;;;;;;;5.20;2.90;;;;;;;11.76;77.53;99906.21;106515;1270;24265;-75
2022/06/22 02:35:04;;;;;;;4.20;2.70;;;;;;;11.74;77.63;99914.73;108057;1270;22543;-81
2022/06/22 02:37:36;;;;;;;3.70;3.30;;;;;;;11.71;77.61;99919.04;107356;1270;25262;-81
2022/06/22 02:40:11;;;;;;;5.70;2.60;;;;;;;11.67;77.78;99918.23;106870;1270;23992;-81
2022/06/22 02:45:24;;;;;;;7.10;2.90;;;;;;;11.62;78.11;99923.80;106383;1270;22553;-83
2022/06/22 02:48:19;;;;;;;5.20;3.10;;;;;;;11.60;78.50;99927.02;106335;1270;22637;-81
2022/06/22 02:51:05;;;;;;;3.90;2.40;;;;;;;11.56;78.52;99930.98;106330;1270;25303;-82
2022/06/22 02:53:37;;;;;;;6.80;2.90;;;;;;;11.56;78.60;99934.50;106148;1270;22557;-75
2022/06/22 02:56:10;;;;;;;3.80;2.80;;;;;;;11.56;78.78;99933.45;106185;1271;24221;-76
2022/06/22 02:58:37;;;;;;;4.60;3.00;;;;;;;11.56;78.93;99930.26;106242;1271;22553;-77
2022/06/22 03:01:10;;;;;;;5.50;2.80;;;;;;;11.58;79.04;99932.88;106404;1271;22578;-78
2022/06/22 03:03:36;;;;;;;4.90;2.70;;;;;;;11.57;78.96;99939.77;106343;1272;25507;-81
2022/06/22 03:06:04;;;;;;;4.00;2.40;;;;;;;11.58;79.09;99943.13;106422;1270;22993;-80
2022/06/22 03:08:30;;;;;;;3.80;2.70;;;;;;;11.62;79.25;99948.31;106170;1271;22731;-83
2022/06/22 03:11:03;;;;;;;7.80;3.00;;;;;;;11.63;79.15;99947.75;106247;1270;22925;-83
2022/06/22 03:13:46;;;;;;;4.90;3.10;;;;;;;11.67;79.47;99952.64;106380;1270;23028;-86
2022/06/22 03:16:29;;;;;;;4.00;2.90;;;;;;;11.70;79.48;99947.61;106321;1270;25448;-81
2022/06/22 03:18:59;;;;;;;3.60;2.40;;;;;;;11.75;79.40;99938.16;106096;1270;24253;-76
2022/06/22 03:21:27;;;;;;;7.40;2.60;;;;;;;11.76;79.38;99925.09;106187;1270;24476;-77
2022/06/22 03:24:25;;;;;;;6.10;2.90;;;;;;;11.73;79.39;99921.09;106217;1271;24308;-79
2022/06/22 03:27:00;;;;;;;2.90;2.50;;;;;;;11.70;79.46;99922.75;106322;1271;22814;-81
2022/06/22 03:29:48;;;;;;;5.40;2.90;;;;;;;11.70;79.67;99922.05;106211;1270;25277;-78
2022/06/22 03:32:23;;;;;;;3.20;2.90;;;;;;;11.78;79.85;99922.23;106499;1269;25265;-78
2022/06/22 03:34:59;;;;;;;5.50;2.70;;;;;;;11.84;79.73;99920.16;106311;1270;22614;-83
2022/06/22 03:37:49;;;;;;;4.60;3.30;;;;;;;11.88;79.80;99923.61;106238;1270;24280;-81
2022/06/22 03:40:24;;;;;;;6.60;3.20;;;;;;;11.96;79.70;99925.02;106599;1272;22879;-78
2022/06/22 03:42:56;;;;;;;3.30;2.90;;;;;;;12.02;79.68;99924.54;107686;1270;25476;-74
2022/06/22 03:45:28;;;;;;;4.00;3.00;;;;;;;12.04;79.55;99921.66;106624;1270;22525;-84
2022/06/22 03:48:24;;;;;;;4.90;3.00;;;;;;;12.09;79.52;99925.80;106342;1270;22553;-84
2022/06/22 03:51:22;;;;;;;6.10;3.20;;;;;;;12.14;79.50;99940.88;106326;1270;22649;-79
2022/06/22 03:54:02;;;;;;;3.20;2.00;;;;;;;12.20;79.34;99943.23;106217;1271;22704;-80
2022/06/22 03:56:35;;;;;;;7.30;3.50;;;;;;;12.18;79.24;99942.23;106233;1268;24110;-75
2022/06/22 03:59:05;;;;;;;3.00;2.70;;;;;;;12.23;79.30;99941.05;106594;1268;22557;-75
2022/06/22 04:01:32;;;;;;;4.00;3.60;;;;;;;12.28;79.36;99946.56;106715;1270;24414;-76
2022/06/22 04:03:58;;;;;;;3.80;3.30;;;;;;;12.37;79.31;99950.59;106268;1270;24225;-79
2022/06/22 04:06:32;;;;;;;6.40;3.30;;;;;;;12.36;79.03;99947.43;106349;1270;22532;-76
2022/06/22 04:09:09;;;;;;;6.50;3.20;;;;;;;12.39;79.10;99944.73;106343;1270;25258;-77
2022/06/22 04:11:40;;;;;;;5.50;2.70;;;;;;;12.44;79.10;99944.61;106183;1269;24308;-77
2022/06/22 04:14:21;;;;;;;6.30;3.10;;;;;;;12.46;79.04;99947.23;106213;1270;22540;-78
2022/06/22 04:16:52;;;;;;;6.40;3.00;;;;;;;12.47;79.03;99954.97;106313;1270;22566;-77
2022/06/22 04:19:22;;;;;;;5.90;3.40;;;;;;;12.52;79.16;99957.66;106278;1270;24266;-78
2022/06/22 04:21:56;;;;;;;5.70;3.10;;;;;;;12.56;79.24;99956.14;106010;1270;235526;-79
2022/06/22 04:24:28;;;;;;;4.60;3.20;;;;;;;12.59;78.94;99955.39;106091;1271;22548;-75
2022/06/22 04:27:13;;;;;;;7.80;3.50;;;;;;;12.61;78.82;99957.27;105978;1270;22556;-79
2022/06/22 04:29:49;;;;;;;4.40;3.30;;;;;;;12.65;78.92;99956.81;106009;1270;22638;-76
2022/06/22 04:32:15;;;;;;;;;;;;;;;12.67;78.85;99955.70;106055;1272;26587;-74
2022/06/22 04:35:06;;;;;;;6.30;4.00;;;;;;;12.66;78.65;99957.67;106161;1270;25472;-75
2022/06/22 04:37:47;;;;;;;5.60;3.10;;;;;;;12.65;78.64;99961.95;106079;1270;22535;-80
2022/06/22 04:40:25;;;;;;;5.10;3.30;;;;;;;12.64;78.60;99957.90;106427;1270;25269;-78
2022/06/22 04:42:59;;;;;;;7.60;3.40;;;;;;;12.69;78.67;99958.66;105920;1276;22541;-78
2022/06/22 04:45:28;;;;;;;3.80;3.10;;;;;;;12.73;78.68;99955.02;106653;1276;22547;-80
2022/06/22 04:48:05;;;;;;;5.70;3.00;;;;;;;12.75;78.67;99951.81;108014;1276;25475;-80
2022/06/22 04:50:33;;;;;;;2.80;2.40;;;;;;;12.77;78.60;99943.10;106731;1277;24286;-77
2022/06/22 04:53:02;;;;;;;4.80;2.90;;;;;;;12.80;78.47;99944.95;107103;1277;22645;-76
2022/06/22 04:55:30;;;;;;;4.80;3.00;;;;;;;12.85;78.56;99948.90;105999;1278;25346;-75
2022/06/22 04:58:03;;;;;;;3.00;2.60;;;;;;;12.94;78.57;99953.09;106586;1278;22567;-72
2022/06/22 05:00:34;;;;;;;6.50;3.30;;;;;;;13.01;78.42;99956.27;106549;1270;22809;-75
2022/06/22 05:03:05;;;;;;;5.70;2.70;;;;;;;13.07;78.19;99949.40;106499;1270;22561;-75
2022/06/22 05:05:34;;;;;;;5.20;3.60;;;;;;;13.15;77.84;99954.30;105911;1277;22999;-76
2022/06/22 05:08:24;;;;;;;7.40;3.00;;;;;;;13.22;77.73;99960.66;105951;1276;24779;-76
2022/06/22 05:10:59;;;;;;;7.40;2.80;;;;;;;13.33;77.75;99959.48;105864;1276;25358;-76
2022/06/22 05:13:32;;;;;;;3.40;2.30;;;;;;;13.39;77.49;99955.95;105864;1275;22570;-78
2022/06/22 05:16:01;;;;;;;6.20;2.10;;;;;;;13.44;77.15;99963.95;105873;1276;22727;-80
2022/06/22 05:18:32;;;;;;;5.40;2.50;;;;;;;13.44;77.24;99962.02;106043;1275;22557;-75
2022/06/22 05:21:29;;;;;;;4.50;2.80;;;;;;;13.53;76.98;99964.63;105787;1274;22646;-74
2022/06/22 05:23:59;;;;;;;6.80;3.00;;;;;;;13.58;76.87;99968.56;105638;1276;22568;-74
2022/06/22 05:26:28;;;;;;;5.20;3.20;;;;;;;13.62;76.71;99970.92;105754;1276;22554;-73
2022/06/22 05:29:13;;;;;;;2.70;2.40;;;;;;;13.67;76.59;99966.36;105721;1276;25272;-74
2022/06/22 05:31:45;;;;;;;4.50;2.90;;;;;;;13.67;76.44;99963.20;105532;1276;25296;-74
2022/06/22 05:34:18;;;;;;;4.90;2.80;;;;;;;13.71;76.47;99969.09;105719;1276;26796;-74
2022/06/22 05:36:50;;;;;;;5.80;3.30;;;;;;;13.76;76.36;99967.02;105595;1276;25377;-77
2022/06/22 05:39:16;;;;;;;4.90;2.60;;;;;;;13.81;76.29;99967.73;105644;1276;24395;-73
2022/06/22 05:41:47;;;;;;;8.30;3.00;;;;;;;13.87;76.35;99961.55;105561;1269;22771;-74
2022/06/22 05:44:17;;;;;;;5.00;2.70;;;;;;;13.96;76.26;99962.70;106166;1274;23085;-74
2022/06/22 05:46:53;;;;;;;5.60;3.20;;;;;;;14.03;76.19;99961.95;106056;1275;24250;-76
2022/06/22 05:49:26;;;;;;;8.40;3.10;;;;;;;14.10;76.01;99962.80;105872;1274;22563;-75
2022/06/22 05:52:11;;;;;;;9.60;3.10;;;;;;;14.17;76.02;99963.83;105943;1274;24092;-73
2022/06/22 05:54:59;;;;;;;8.10;2.80;;;;;;;14.24;75.82;99974.24;105748;1276;22592;-74
2022/06/22 05:57:31;;;;;;;5.70;2.90;;;;;;;14.33;75.67;99979.98;106050;1274;25344;-75
2022/06/22 06:00:10;;;;;;;4.90;3.10;;;;;;;14.39;75.33;99984.41;105910;1274;25484;-76
2022/06/22 06:03:05;;;;;;;7.30;2.60;;;;;;;14.45;75.25;99982.26;106124;1268;22553;-75
2022/06/22 06:05:39;;;;;;;5.80;2.80;;;;;;;14.53;75.13;99978.85;106365;1268;22649;-74
2022/06/22 06:08:26;;;;;;;6.00;2.80;;;;;;;14.57;75.00;99980.48;106277;1268;22593;-75
2022/06/22 06:10:55;;;;;;;4.60;2.80;;;;;;;14.65;74.97;99982.19;106309;1269;22524;-76
2022/06/22 06:13:30;;;;;;;6.80;3.10;;;;;;;14.74;74.88;99982.26;106261;1270;23010;-80
2022/06/22 06:16:00;;;;;;;7.80;3.40;;;;;;;14.79;74.62;99976.61;106248;1270;25236;-76
2022/06/22 06:18:36;;;;;;;4.90;3.60;;;;;;;14.85;74.56;99981.55;106444;1268;26536;-76
2022/06/22 06:21:09;;;;;;;5.70;2.80;;;;;;;14.91;74.42;99982.42;106147;1268;22535;-77
2022/06/22 06:23:50;;;;;;;4.40;3.00;;;;;;;14.95;74.34;99983.00;106269;1270;22548;-75
2022/06/22 06:29:30;;;;;;;6.10;2.40;;;;;;;15.11;73.77;99971.27;106296;1270;22540;-77
2022/06/22 06:32:00;;;;;;;6.50;2.90;;;;;;;15.16;73.50;99970.77;106418;1268;22559;-79
2022/06/22 06:34:33;;;;;;;4.60;2.70;;;;;;;15.22;73.55;99969.50;106540;1268;22559;-76
2022/06/22 06:37:18;;;;;;;4.90;2.90;;;;;;;15.30;73.01;99973.27;107228;1270;23956;-74
2022/06/22 06:39:47;;;;;;;3.40;2.00;;;;;;;15.40;72.72;99978.09;107552;1270;22543;-72
2022/06/22 06:42:21;;;;;;;6.70;2.50;;;;;;;15.50;72.76;99972.75;107064;1268;24370;-74
2022/06/22 06:44:51;;;;;;;6.70;2.50;;;;;;;15.59;72.44;99967.83;106497;1268;27195;-74
2022/06/22 06:47:27;;;;;;;3.60;2.90;;;;;;;15.67;71.93;99963.08;106878;1268;22586;-73
2022/06/22 06:50:02;;;;;;;7.60;2.70;;;;;;;15.75;71.48;99963.67;107031;1268;25446;-75
2022/06/22 06:52:34;;;;;;;4.20;2.20;;;;;;;15.81;71.27;99964.69;106178;1273;22722;-75
2022/06/22 06:55:12;;;;;;;6.00;2.20;;;;;;;15.90;70.81;99959.25;106530;1273;24460;-74
2022/06/22 06:58:07;;;;;;;6.00;2.40;;;;;;;15.96;69.45;99963.07;106276;1273;22483;-74
2022/06/22 07:00:34;;;;;;;5.50;2.20;;;;;;;16.03;69.47;99956.44;105892;1277;22643;-79
2022/06/22 07:03:01;;;;;;;6.00;2.70;;;;;;;16.10;69.42;99955.65;105768;1277;22558;-79
2022/06/22 07:05:29;;;;;;;3.70;2.10;;;;;;;16.17;69.47;99962.81;105829;1277;22861;-74
2022/06/22 07:08:05;;;;;;;9.60;2.70;;;;;;;16.24;69.31;99958.30;105878;1277;24240;-75
2022/06/22 07:10:55;;;;;;;5.80;2.40;;;;;;;16.39;68.90;99960.91;105825;1274;25481;-74
2022/06/22 07:13:25;;;;;;;6.00;2.10;;;;;;;16.51;68.93;99958.13;105931;1274;25429;-74
2022/06/22 07:16:06;;;;;;;3.70;1.80;;;;;;;16.61;67.71;99962.35;106141;1274;25338;-76
2022/06/22 07:18:46;;;;;;;5.40;1.90;;;;;;;16.69;66.81;99964.50;106130;1270;22483;-77
2022/06/22 07:21:19;;;;;;;5.00;2.10;;;;;;;16.76;66.34;99964.73;106452;1270;22543;-86
2022/06/22 07:23:58;;;;;;;4.20;2.00;;;;;;;16.86;66.27;99961.84;106361;1270;25534;-80
2022/06/22 07:26:42;;;;;;;4.60;2.40;;;;;;;16.94;65.64;99958.67;106376;1268;22544;-79
2022/06/22 07:29:34;;;;;;;8.20;2.20;;;;;;;16.99;65.59;99954.52;106373;1270;22577;-74
2022/06/22 07:32:17;;;;;;;5.10;2.40;;;;;;;17.09;65.42;99959.31;106291;1270;25478;-77
2022/06/22 07:34:59;;;;;;;5.90;2.20;;;;;;;17.14;65.49;99961.40;106248;1268;25404;-75
2022/06/22 07:37:34;;;;;;;6.90;3.00;;;;;;;17.22;65.26;99960.01;106541;1270;22616;-74
2022/06/22 07:40:26;;;;;;;6.70;2.40;;;;;;;17.28;65.15;99956.34;106459;1269;25541;-76
2022/06/22 07:42:56;;;;;;;3.80;2.10;;;;;;;17.35;64.93;99966.73;106279;1270;24276;-73
2022/06/22 07:45:25;;;;;;;3.60;2.30;;;;;;;17.40;64.51;99960.27;106385;1268;22554;-76
2022/06/22 07:48:24;;;;;;;7.80;3.50;;;;;;;17.48;64.44;99960.46;106085;1270;24263;-76
2022/06/22 07:51:00;;;;;;;4.80;2.10;;;;;;;17.59;63.60;99966.55;106176;1270;25589;-74
2022/06/22 07:53:48;;;;;;;2.40;2.10;;;;;;;17.69;63.04;99969.48;106173;1270;25395;-77
2022/06/22 07:56:23;;;;;;;3.50;2.00;;;;;;;17.74;62.21;99969.45;106408;1268;22554;-77
2022/06/22 07:58:54;;;;;;;3.20;1.90;;;;;;;17.70;61.86;99968.04;106351;1270;23108;-75
2022/06/22 08:01:29;;;;;;;5.60;2.40;;;;;;;17.78;61.88;99968.54;106358;1268;22775;-75
2022/06/22 08:03:58;;;;;;;4.30;2.30;;;;;;;17.83;62.20;99963.50;106098;1270;24275;-77
2022/06/22 08:06:29;;;;;;;4.60;2.10;;;;;;;17.93;61.98;99959.83;106411;1268;25402;-76
2022/06/22 08:08:59;;;;;;;5.30;2.20;;;;;;;18.05;62.05;99961.79;106372;1270;25674;-76
2022/06/22 08:11:41;;;;;;;4.70;2.00;;;;;;;18.18;61.26;99964.08;106534;1268;22617;-77
2022/06/22 08:14:18;;;;;;;2.90;1.80;;;;;;;18.27;61.13;99956.86;106313;1269;24219;-77
2022/06/22 08:16:48;;;;;;;3.80;2.20;;;;;;;18.48;60.83;99970.81;106284;1268;24214;-77
2022/06/22 08:19:15;;;;;;;5.10;2.00;;;;;;;18.60;60.35;99977.38;106248;1270;22568;-77
2022/06/22 08:21:46;;;;;;;4.70;2.40;;;;;;;18.67;60.06;99977.74;106252;1270;22662;-78
2022/06/22 08:24:18;;;;;;;4.60;2.30;;;;;;;18.74;59.10;99968.83;106278;1269;22815;-74
2022/06/22 08:26:46;;;;;;;3.20;1.90;;;;;;;18.78;58.66;99968.13;106327;1269;22539;-76
2022/06/22 08:29:16;;;;;;;4.00;2.50;;;;;;;18.82;58.81;99956.53;106283;1270;22537;-79
2022/06/22 08:31:49;;;;;;;3.00;1.70;;;;;;;19.01;59.40;99966.24;106190;1270;24374;-77
2022/06/22 08:34:44;;;;;;;5.50;2.10;;;;;;;19.16;57.41;99971.23;106442;1268;25272;-76
2022/06/22 08:37:18;;;;;;;5.90;1.80;;;;;;;19.17;57.12;99964.92;106522;1270;22685;-77
2022/06/22 08:39:53;;;;;;;2.70;1.90;;;;;;;19.24;57.24;99966.03;106732;1270;25402;-78
2022/06/22 08:42:36;;;;;;;3.40;2.00;;;;;;;19.32;57.15;99955.95;106338;1270;22588;-84
2022/06/22 08:45:37;;;;;;;4.00;2.00;;;;;;;19.50;57.58;99952.36;106277;1271;23957;-77
2022/06/22 08:48:28;;;;;;;4.60;2.00;;;;;;;19.66;56.42;99951.50;106604;1270;22742;-79
2022/06/22 08:51:09;;;;;;;2.80;1.60;;;;;;;19.59;56.10;99951.53;106480;1270;25377;-76
2022/06/22 08:53:57;;;;;;;3.80;2.20;;;;;;;19.54;54.89;99963.39;106592;1270;25671;-77
2022/06/22 08:57:09;;;;;;;4.20;2.10;;;;;;;19.68;55.63;99954.63;106495;1270;24398;-75
2022/06/22 09:00:09;;;;;;;5.40;2.30;;;;;;;20.00;56.63;99962.86;106105;1275;22586;-77
2022/06/22 09:03:32;;;;;;;4.30;2.60;;;;;;;19.97;54.92;99963.03;106415;1276;24381;-75
2022/06/22 09:06:31;;;;;;;6.60;2.80;;;;;;;20.01;55.76;99966.94;105490;1282;22688;-78
2022/06/22 09:09:26;;;;;;;4.40;2.10;;;;;;;20.29;55.18;99961.46;105516;1281;22864;-77
2022/06/22 09:11:58;;;;;;;2.90;1.40;;;;;;;20.49;54.84;99964.30;105344;1282;24253;-75
2022/06/22 09:14:24;;;;;;;3.60;2.30;;;;;;;20.67;54.33;99962.52;105415;1281;22569;-76
2022/06/22 09:17:11;;;;;;;5.20;2.10;;;;;;;20.88;54.00;99959.56;105540;1278;22575;-77
2022/06/22 09:20:21;;;;;;;4.00;1.90;;;;;;;21.11;52.53;99957.30;105920;1276;25335;-79
2022/06/22 09:22:50;;;;;;;3.30;1.70;;;;;;;21.13;52.60;99967.39;105590;1278;25422;-78
2022/06/22 09:25:49;;;;;;;4.90;1.90;;;;;;;21.20;52.34;99966.65;105983;1276;26528;-77
2022/06/22 09:28:27;;;;;;;4.70;1.70;;;;;;;21.31;51.77;99967.23;105787;1276;24354;-75
2022/06/22 09:30:56;;;;;;;4.30;1.90;;;;;;;21.33;51.78;99966.76;105914;1276;24267;-77
2022/06/22 09:33:33;;;;;;;6.20;2.10;;;;;;;21.45;52.10;99973.74;106206;1276;25529;-76
2022/06/22 09:36:27;;;;;;;5.60;1.70;;;;;;;21.40;51.84;99973.52;106210;1271;22760;-75
2022/06/22 09:39:21;;;;;;;4.60;1.60;;;;;;;21.10;51.41;99973.83;106541;1270;22594;-82
2022/06/22 09:41:56;;;;;;;2.20;1.50;;;;;;;20.97;51.60;99974.45;106525;1268;22566;-78
2022/06/22 09:44:37;;;;;;;3.80;1.90;;;;;;;21.12;51.64;99970.14;106548;1270;22531;-77
2022/06/22 09:47:22;;;;;;;2.80;1.50;;;;;;;21.32;50.80;99969.13;106320;1270;25381;-77
2022/06/22 09:49:54;;;;;;;2.40;1.80;;;;;;;21.27;51.14;99963.19;106420;1270;23978;-73
2022/06/22 09:52:30;;;;;;;2.80;1.60;;;;;;;21.19;50.75;99968.67;106418;1268;24815;-74
2022/06/22 09:58:21;;;;;;;3.20;1.90;;;;;;;21.44;50.39;99971.08;106515;1268;22605;-78
2022/06/22 10:00:56;;;;;;;2.80;1.60;;;;;;;21.32;49.73;99976.45;106396;1270;25252;-77
2022/06/22 10:03:58;;;;;;;5.20;1.70;;;;;;;21.41;48.55;99976.29;106402;1270;22623;-78
2022/06/22 10:06:54;;;;;;;2.70;1.60;;;;;;;21.57;49.29;99967.08;106329;1268;25428;-82
2022/06/22 10:09:38;;;;;;;2.90;1.80;;;;;;;21.85;48.76;99965.73;106328;1270;22543;-76
2022/06/22 10:12:25;;;;;;;3.20;1.60;;;;;;;21.88;48.59;99967.67;106409;1270;24270;-77
2022/06/22 10:15:29;;;;;;;2.40;1.50;;;;;;;21.93;48.45;99970.80;106438;1268;22691;-74
2022/06/22 10:18:39;;;;;;;6.40;2.00;;;;;;;21.94;48.70;99968.77;106356;1269;24242;-75
2022/06/22 10:21:35;;;;;;;3.00;1.80;;;;;;;22.27;48.84;99971.85;106367;1268;22554;-75
2022/06/22 10:24:28;;;;;;;4.40;2.10;;;;;;;22.41;47.62;99982.08;106284;1270;25191;-77
2022/06/22 10:27:15;;;;;;;1.90;1.40;;;;;;;22.48;46.71;99971.92;106467;1270;22549;-78
2022/06/22 10:30:18;;;;;;;2.20;1.80;;;;;;;22.34;46.31;99969.10;106206;1269;25331;-77
2022/06/22 10:33:19;;;;;;;4.50;1.60;;;;;;;22.03;46.81;99975.58;106555;1270;22976;-76
2022/06/22 10:35:59;;;;;;;4.50;1.70;;;;;;;21.89;47.38;99977.70;106389;1268;24189;-77
2022/06/22 10:38:56;;;;;;;2.10;1.50;;;;;;;22.13;46.86;99977.59;106304;1270;25646;-79
2022/06/22 10:45:09;;;;;;;3.00;1.80;;;;;;;22.57;46.47;99973.86;106297;1270;24264;-77
2022/06/22 10:48:09;;;;;;;3.20;1.90;;;;;;;22.62;45.06;99971.05;106495;1270;22785;-75
2022/06/22 10:50:47;;;;;;;2.90;1.30;;;;;;;22.83;44.53;99978.13;106431;1268;24218;-76
2022/06/22 10:53:49;;;;;;;3.90;1.70;;;;;;;23.05;44.05;99971.05;106533;1268;22548;-75
2022/06/22 10:57:00;;;;;;;2.30;1.50;;;;;;;23.34;43.65;99963.19;105985;1276;25458;-78
2022/06/22 10:59:59;;;;;;;2.90;1.80;;;;;;;23.33;43.67;99967.23;105642;1274;24261;-78
2022/06/22 11:02:49;;;;;;;2.40;1.50;;;;;;;23.45;43.18;99968.40;105959;1275;25397;-78
2022/06/22 11:05:36;;;;;;;2.90;1.60;;;;;;;23.47;42.88;99966.95;105663;1274;22549;-78
2022/06/22 11:08:33;;;;;;;2.70;1.70;;;;;;;23.59;43.15;99964.33;106089;1276;22672;-77
2022/06/22 11:11:03;;;;;;;;;;;;;;;23.74;42.93;99959.67;106019;1275;26045;-75
2022/06/22 11:13:54;;;;;;;3.30;1.60;;;;;;;23.97;43.38;99959.02;106066;1275;24364;-76
2022/06/22 11:16:39;;;;;;;2.70;1.50;;;;;;;24.06;42.57;99959.02;106594;1274;25386;-73
2022/06/22 11:19:44;;;;;;;3.70;1.80;;;;;;;24.19;41.73;99956.69;106726;1274;22576;-76
2022/06/22 11:22:40;;;;;;;2.30;1.60;;;;;;;23.91;41.71;99951.48;106266;1273;25485;-77
2022/06/22 11:31:39;;;;;;;3.50;1.50;;;;;;;24.01;41.80;99953.84;106257;1270;24566;-79
2022/06/22 11:34:24;;;;;;;3.40;1.70;;;;;;;24.24;41.71;99954.92;106389;1268;25252;-78
2022/06/22 11:37:18;;;;;;;3.70;1.60;;;;;;;24.57;40.77;99954.82;106383;1270;24396;-77
2022/06/22 11:40:51;;;;;;;4.90;1.60;;;;;;;24.69;39.67;99953.20;106672;1270;25220;-78
2022/06/22 11:43:35;;;;;;;5.30;1.60;;;;;;;24.17;39.74;99953.09;106614;1268;23279;-77
2022/06/22 11:46:25;;;;;;;1.70;1.50;;;;;;;24.20;39.62;99947.46;106391;1268;23924;-77
2022/06/22 11:49:18;;;;;;;1.40;1.30;;;;;;;24.50;40.20;99946.91;106442;1270;22715;-77
2022/06/22 11:52:06;;;;;;;3.70;1.10;;;;;;;24.41;39.59;99944.66;106031;1274;22620;-76
2022/06/22 11:54:35;;;;;;;2.20;1.20;;;;;;;24.36;39.20;99952.43;106017;1274;24271;-77
2022/06/22 11:57:08;;;;;;;2.50;1.30;;;;;;;24.46;38.93;99948.27;105910;1275;25332;-75
2022/06/22 11:59:49;;;;;;;2.30;1.50;;;;;;;24.35;38.88;99950.84;105936;1275;24356;-77
2022/06/22 12:02:21;;;;;;;1.60;1.30;;;;;;;24.07;39.62;99953.55;105905;1274;24488;-76
2022/06/22 12:05:15;;;;;;;2.40;1.40;;;;;;;23.86;39.96;99955.63;105889;1274;23924;-75
2022/06/22 12:08:07;;;;;;;3.40;1.80;;;;;;;24.07;40.32;99952.51;105837;1276;25271;-77
2022/06/22 12:10:59;;;;;;;5.90;1.70;;;;;;;24.29;39.59;99950.42;106235;1270;22766;-77
2022/06/22 12:15:04;;;;;;;4.50;1.60;;;;;;;24.13;39.89;99956.21;106482;1268;23960;-74
2022/06/22 12:16:35;;;;;;;4.60;1.60;;;;;;;24.46;40.02;99954.92;106481;1270;23952;-78
2022/06/22 12:19:27;;;;;;;2.40;1.60;;;;;;;24.73;39.66;99953.98;106415;1270;22531;-75
2022/06/22 12:21:56;;;;;;;2.80;1.50;;;;;;;25.09;39.21;99950.95;106680;1268;25229;-77
2022/06/22 12:24:30;;;;;;;2.20;1.40;;;;;;;25.28;38.50;99947.35;107317;1268;22739;-74
2022/06/22 12:27:34;;;;;;;2.00;1.40;;;;;;;25.01;37.53;99962.73;107107;1268;22536;-77
2022/06/22 12:30:11;;;;;;;4.10;1.80;;;;;;;24.97;38.34;99953.50;106488;1270;23950;-79
2022/06/22 12:33:11;;;;;;;1.40;1.30;;;;;;;25.27;38.21;99952.99;106479;1270;22535;-84
2022/06/22 12:35:56;;;;;;;4.30;1.70;;;;;;;25.64;37.47;99954.44;106337;1268;23963;-80
2022/06/22 12:38:40;;;;;;;2.00;1.50;;;;;;;25.79;35.69;99948.92;106289;1273;24200;-80
2022/06/22 12:41:51;;;;;;;4.70;1.50;;;;;;;25.38;36.10;99952.31;106965;1268;22557;-83
2022/06/22 12:44:40;;;;;;;1.90;1.60;;;;;;;24.95;37.10;99958.88;106288;1268;22560;-78
2022/06/22 12:47:58;;;;;;;3.50;1.50;;;;;;;24.66;37.50;99958.46;106317;1268;25259;-76
2022/06/22 12:50:49;;;;;;;3.80;1.90;;;;;;;24.46;37.72;99951.14;106352;1270;22575;-76